Ephrata, Washington
Current Conditions -  °F | °C
As of 11:53 AM on Wednesday 28 Jan 2015 (Local Time) from KEPH Reporting Station
Overcast Overcast  
Wind Chill: 28°   Ceiling: 700
Heat Index: 34°   Visibility: 10mi
Dew Point: 32°   Wind: 7mph
Humidity: 92%   Direction: 330°NNW
Pressure: 30.43"   Gusts: NA
Location:  47.32°N, 119.55°W
Report Text: KEPH 281953Z AUTO 33006KT 10SM OVC007 01/00 A3043 RMK AO2 SLP317 T00110000
Loading
Personal Weather Stations






























Interactive Weather Map New forecast layout! Learn more

10-Day Weather Forecast

Advertisements
Track Severe Weather on mobile